Audubon, Iowa
Current Conditions -  °F | °C
As of 8:35 AM on Friday 19 Dec 2014 (Local Time) from KADU Reporting Station
Haze Haze  
Wind Chill: 25°   Ceiling: Unl
Heat Index: 30°   Visibility: 2.5mi
Dew Point: 25°   Wind: 5mph
Humidity: 80%   Direction: 200°SSW
Pressure: 30.23"   Gusts: NA
Location:  41.72°N, 94.93°W
Report Text: KADU 191435Z AUTO 20004KT 2 1/2SM HZ SCT005 M01/M04 A3023 RMK AO2
Loading
Personal Weather Stations






























Interactive Weather Map New forecast layout! Learn more

10-Day Weather Forecast

Advertisements
Track Severe Weather on mobile